Time;durP1;ratioP1;P1;durP2;ratioP2;P2;SDS_P1;SDS_P2;PMS_P1;PMS_P2;Temp;Humidity;BMP_temperature;BMP_pressure;BME280_temperature;BME280_humidity;BME280_pressure;Samples;Min_cycle;Max_cycle;Signal;HPM_P1;HPM_P2
2022/03/18 00:02:21;;;;;;;22.08;7.85;;;2.70;99.90;;;;;;4999675;28;20049;-84
2022/03/18 00:04:48;;;;;;;19.10;7.47;;;2.90;99.90;;;;;;5014963;28;20397;-84
2022/03/18 00:07:14;;;;;;;21.17;7.85;;;2.60;99.90;;;;;;5015795;28;20389;-84
2022/03/18 00:09:41;;;;;;;22.85;8.43;;;2.60;99.90;;;;;;5032212;28;20069;-84
2022/03/18 00:12:08;;;;;;;22.25;8.23;;;3.00;99.90;;;;;;5014932;28;20057;-84
2022/03/18 00:14:34;;;;;;;24.90;9.02;;;2.70;99.90;;;;;;4999502;28;20057;-84
2022/03/18 00:17:00;;;;;;;21.25;8.15;;;3.70;99.90;;;;;;5032059;28;20040;-84
2022/03/18 00:19:27;;;;;;;24.90;9.23;;;3.80;99.90;;;;;;5030913;28;20045;-84
2022/03/18 00:22:00;;;;;;;21.00;9.00;;;4.00;99.90;;;;;;5030683;28;20061;-84
2022/03/18 00:24:31;;;;;;;27.67;8.57;;;4.20;99.90;;;;;;5000780;28;20482;-84
2022/03/18 00:26:57;;;;;;;22.73;9.00;;;2.80;99.90;;;;;;5014793;28;20132;-84
2022/03/18 00:29:22;;;;;;;32.40;9.80;;;2.90;99.90;;;;;;5031453;28;20088;-84
2022/03/18 00:31:48;;;;;;;24.35;8.80;;;2.90;99.90;;;;;;5030558;28;20045;-84
2022/03/18 00:34:14;;;;;;;24.33;9.63;;;3.30;99.90;;;;;;5014986;28;20048;-84
2022/03/18 00:36:40;;;;;;;26.08;10.05;;;3.00;99.90;;;;;;5031447;28;20544;-84
2022/03/18 00:39:06;;;;;;;24.75;10.23;;;2.90;99.90;;;;;;5030409;28;20325;-84
2022/03/18 00:41:32;;;;;;;24.75;10.15;;;3.00;99.90;;;;;;5016051;28;20057;-84
2022/03/18 00:43:57;;;;;;;20.55;10.25;;;3.70;99.90;;;;;;5008274;28;20029;-84
2022/03/18 00:46:24;;;;;;;25.75;11.77;;;3.00;99.90;;;;;;5054854;28;20049;-84
2022/03/18 00:54:20;;;;;;;30.42;11.98;;;4.10;99.90;;;;;;5030825;28;20049;-84
2022/03/18 00:56:46;;;;;;;24.38;11.95;;;3.90;99.90;;;;;;5030566;28;20037;-84
2022/03/18 00:59:12;;;;;;;34.05;12.95;;;3.00;99.90;;;;;;5013761;28;20057;-84
2022/03/18 01:01:37;;;;;;;36.63;14.05;;;3.00;99.90;;;;;;5030715;28;20045;-84
2022/03/18 01:04:04;;;;;;;36.92;15.07;;;3.70;99.90;;;;;;5013930;28;20489;-84
2022/03/18 01:06:33;;;;;;;34.20;14.73;;;3.00;99.90;;;;;;5030708;28;20045;-84
2022/03/18 01:08:58;;;;;;;39.03;16.42;;;3.10;99.90;;;;;;4997763;28;20123;-84
2022/03/18 01:11:24;;;;;;;32.15;16.00;;;3.10;99.90;;;;;;5013690;28;20060;-84
2022/03/18 01:13:50;;;;;;;38.88;15.35;;;3.20;99.90;;;;;;5013660;28;20080;-84
2022/03/18 01:16:16;;;;;;;38.25;15.82;;;4.70;99.90;;;;;;5013760;28;20089;-84
2022/03/18 01:18:41;;;;;;;34.40;16.75;;;3.20;99.90;;;;;;5031515;28;20046;-84
2022/03/18 01:21:07;;;;;;;37.58;16.95;;;3.20;99.90;;;;;;5029211;28;20432;-84
2022/03/18 01:23:32;;;;;;;39.80;18.17;;;3.30;99.90;;;;;;5013040;28;20166;-84
2022/03/18 01:25:58;;;;;;;35.00;16.25;;;4.40;99.90;;;;;;5029991;28;20077;-84
2022/03/18 01:28:24;;;;;;;40.53;15.55;;;3.50;99.90;;;;;;5035224;28;20049;-84
2022/03/18 01:30:50;;;;;;;33.10;14.57;;;3.40;99.90;;;;;;5013797;28;20540;-84
2022/03/18 01:33:16;;;;;;;30.02;14.25;;;4.20;99.90;;;;;;5029772;28;20120;-84
2022/03/18 01:35:41;;;;;;;31.63;14.10;;;3.80;99.90;;;;;;5030070;28;20049;-84
2022/03/18 01:38:07;;;;;;;28.45;13.95;;;3.40;99.90;;;;;;5013698;28;20057;-84
2022/03/18 01:40:33;;;;;;;30.52;13.48;;;3.70;99.90;;;;;;5033556;28;20045;-84
2022/03/18 01:42:59;;;;;;;32.70;14.20;;;3.40;99.90;;;;;;5030795;28;20057;-84
2022/03/18 01:45:25;;;;;;;31.60;13.23;;;3.80;99.90;;;;;;5022028;28;20042;-84
2022/03/18 01:47:50;;;;;;;25.38;13.23;;;3.40;99.90;;;;;;5019420;28;20470;-84
2022/03/18 01:50:16;;;;;;;27.83;13.10;;;3.40;99.90;;;;;;5033821;28;20513;-84
2022/03/18 01:52:43;;;;;;;35.10;14.57;;;3.90;99.90;;;;;;5017643;28;20042;-84
2022/03/18 01:55:09;;;;;;;31.70;13.50;;;3.50;99.90;;;;;;5017673;28;20128;-84
2022/03/18 01:57:34;;;;;;;23.95;12.32;;;4.60;99.90;;;;;;5019257;28;20141;-84
2022/03/18 02:00:00;;;;;;;29.40;12.82;;;3.60;99.90;;;;;;5045315;28;20060;-84
2022/03/18 02:02:26;;;;;;;25.40;12.30;;;3.90;99.90;;;;;;5053252;28;20067;-84
2022/03/18 02:04:52;;;;;;;21.70;12.40;;;4.70;99.90;;;;;;5017907;28;20565;-84
2022/03/18 02:07:18;;;;;;;27.52;12.10;;;3.90;99.90;;;;;;5016971;28;20110;-84
2022/03/18 02:09:44;;;;;;;26.73;12.00;;;4.20;99.90;;;;;;5017410;28;20049;-84
2022/03/18 02:12:10;;;;;;;30.50;11.73;;;4.60;99.90;;;;;;5017172;28;20057;-84
2022/03/18 02:14:43;;;;;;;26.90;11.48;;;3.20;99.90;;;;;;5000891;28;20053;-84
2022/03/18 02:17:11;;;;;;;23.93;9.90;;;3.20;99.90;;;;;;5016606;28;20053;-84
2022/03/18 02:19:37;;;;;;;23.75;10.63;;;4.20;99.90;;;;;;5017068;28;20045;-85
2022/03/18 02:22:05;;;;;;;24.77;10.23;;;3.30;99.90;;;;;;5016356;28;20092;-84
2022/03/18 02:24:31;;;;;;;24.98;10.23;;;3.40;99.90;;;;;;5033384;28;20061;-84
2022/03/18 02:26:57;;;;;;;21.27;10.43;;;3.30;99.90;;;;;;5017238;28;20046;-85
2022/03/18 02:29:23;;;;;;;22.48;9.80;;;3.30;99.90;;;;;;5017472;28;20041;-83
2022/03/18 02:31:48;;;;;;;21.00;10.13;;;3.90;99.90;;;;;;5016790;28;20053;-84
2022/03/18 02:34:14;;;;;;;26.33;11.25;;;3.30;99.90;;;;;;5017352;28;20385;-84
2022/03/18 02:36:40;;;;;;;22.38;9.90;;;3.30;99.90;;;;;;5017242;28;20505;-84
2022/03/18 02:39:06;;;;;;;25.45;9.35;;;3.30;99.90;;;;;;5016659;28;20057;-84
2022/03/18 02:41:35;;;;;;;20.30;10.07;;;3.30;99.90;;;;;;5016834;28;20061;-84
2022/03/18 02:44:01;;;;;;;27.83;10.10;;;4.40;99.90;;;;;;5016843;28;20505;-85
2022/03/18 02:46:26;;;;;;;25.38;10.20;;;4.60;99.90;;;;;;5032938;28;20046;-84
2022/03/18 02:48:52;;;;;;;19.58;9.38;;;3.30;99.90;;;;;;5033463;28;20479;-84
2022/03/18 02:51:18;;;;;;;18.15;8.43;;;3.30;99.90;;;;;;5033036;28;20489;-84
2022/03/18 02:53:43;;;;;;;18.73;8.25;;;3.40;99.90;;;;;;5015360;28;20397;-84
2022/03/18 02:56:09;;;;;;;21.90;8.95;;;3.70;99.90;;;;;;5033776;28;20042;-84
2022/03/18 02:58:35;;;;;;;19.45;8.63;;;3.40;99.90;;;;;;5016781;28;20037;-84
2022/03/18 03:01:02;;;;;;;19.13;9.10;;;3.40;99.90;;;;;;5049581;28;20049;-83
2022/03/18 03:03:28;;;;;;;19.67;9.30;;;3.50;99.90;;;;;;5032847;28;20474;-84
2022/03/18 03:08:37;;;;;;;20.73;9.65;;;3.60;99.90;;;;;;5019127;28;20053;-84
2022/03/18 03:11:03;;;;;;;20.42;8.90;;;3.60;99.90;;;;;;5032323;28;20047;-84
2022/03/18 03:13:29;;;;;;;23.27;9.77;;;3.70;99.90;;;;;;5032517;28;20073;-84
2022/03/18 03:15:56;;;;;;;17.58;8.43;;;4.00;99.90;;;;;;5032340;28;20099;-84
2022/03/18 03:18:21;;;;;;;22.50;8.35;;;3.70;99.90;;;;;;5032205;28;20512;-84
2022/03/18 03:20:48;;;;;;;23.63;9.18;;;3.70;99.90;;;;;;5016184;28;20058;-84
2022/03/18 03:23:15;;;;;;;25.15;8.63;;;3.60;99.90;;;;;;5033506;28;20060;-84
2022/03/18 03:25:41;;;;;;;20.67;8.35;;;3.60;99.90;;;;;;5032275;28;20045;-84
2022/03/18 03:28:07;;;;;;;22.92;9.45;;;3.60;99.90;;;;;;5033358;28;20049;-84
2022/03/18 03:30:33;;;;;;;18.42;8.02;;;3.60;99.90;;;;;;5016051;28;20057;-84
2022/03/18 03:32:59;;;;;;;18.45;8.30;;;4.90;99.90;;;;;;5016033;28;20045;-84
2022/03/18 03:35:25;;;;;;;16.35;8.73;;;3.60;99.90;;;;;;5030875;28;20802;-84
2022/03/18 03:37:51;;;;;;;21.58;8.80;;;4.30;99.90;;;;;;5032000;28;20060;-84
2022/03/18 03:40:17;;;;;;;18.50;9.60;;;3.60;99.90;;;;;;5031821;28;20049;-84
2022/03/18 03:42:42;;;;;;;15.15;8.80;;;3.60;99.90;;;;;;5015967;28;20532;-84
2022/03/18 03:45:12;;;;;;;15.85;8.82;;;3.60;99.90;;;;;;5015198;28;20061;-84
2022/03/18 03:47:38;;;;;;;20.50;8.82;;;3.50;99.90;;;;;;5031263;28;20509;-84
2022/03/18 03:50:05;;;;;;;22.52;9.65;;;3.50;99.90;;;;;;5015373;28;20049;-84
2022/03/18 03:52:30;;;;;;;21.55;9.25;;;3.50;99.90;;;;;;5015151;28;20127;-84
2022/03/18 03:54:56;;;;;;;21.63;8.90;;;4.40;99.90;;;;;;5032020;28;20084;-84
2022/03/18 03:57:22;;;;;;;18.80;9.32;;;4.50;99.90;;;;;;5033441;28;20132;-84
2022/03/18 03:59:48;;;;;;;22.42;9.60;;;3.40;99.90;;;;;;5005575;28;20084;-84
2022/03/18 04:02:13;;;;;;;16.60;8.63;;;4.50;99.90;;;;;;5047298;28;20057;-84
2022/03/18 04:04:39;;;;;;;19.30;9.75;;;3.40;99.90;;;;;;5016333;28;20072;-84
2022/03/18 04:07:05;;;;;;;18.23;8.65;;;3.80;99.90;;;;;;5017151;28;20049;-84
2022/03/18 04:09:31;;;;;;;18.42;8.40;;;3.30;99.90;;;;;;4998346;28;20091;-84
2022/03/18 04:11:56;;;;;;;22.63;10.95;;;3.30;99.90;;;;;;5032088;28;20049;-84
2022/03/18 04:14:22;;;;;;;16.70;9.07;;;3.70;99.90;;;;;;5031966;28;20046;-84
2022/03/18 04:16:48;;;;;;;17.75;9.60;;;4.60;99.90;;;;;;5031817;28;20393;-84
2022/03/18 04:19:14;;;;;;;23.92;9.10;;;4.30;99.90;;;;;;5015086;28;20053;-84
2022/03/18 04:21:39;;;;;;;21.23;10.20;;;3.50;99.90;;;;;;5031205;28;20065;-84
2022/03/18 04:24:05;;;;;;;18.52;9.57;;;3.80;99.90;;;;;;5031797;28;20113;-84
2022/03/18 04:26:32;;;;;;;17.33;9.55;;;3.10;99.90;;;;;;5032326;28;20051;-84
2022/03/18 04:28:58;;;;;;;22.60;9.60;;;3.00;99.90;;;;;;5038946;28;20089;-84
2022/03/18 04:31:24;;;;;;;17.85;9.55;;;3.70;99.90;;;;;;5021747;28;20108;-84
2022/03/18 04:33:49;;;;;;;20.77;10.13;;;3.00;99.90;;;;;;5015782;28;20061;-84
2022/03/18 04:36:15;;;;;;;24.83;9.98;;;3.00;99.90;;;;;;5030970;28;20045;-84
2022/03/18 04:38:41;;;;;;;21.35;10.82;;;2.90;99.90;;;;;;5031742;28;20049;-84
2022/03/18 04:41:06;;;;;;;26.70;10.95;;;3.80;99.90;;;;;;5032092;28;20045;-84
2022/03/18 04:43:32;;;;;;;28.02;11.82;;;3.00;99.90;;;;;;5031844;28;20695;-84
2022/03/18 04:45:58;;;;;;;17.80;11.50;;;2.90;99.90;;;;;;5014701;28;20066;-84
2022/03/18 04:48:23;;;;;;;23.35;11.70;;;3.80;99.90;;;;;;5014040;28;20098;-84
2022/03/18 04:50:49;;;;;;;23.58;11.82;;;2.90;99.90;;;;;;5014427;28;20080;-84
2022/03/18 04:53:15;;;;;;;20.77;10.75;;;3.60;99.90;;;;;;5014582;28;20566;-84
2022/03/18 04:55:40;;;;;;;23.45;11.23;;;2.90;99.90;;;;;;5030538;28;20053;-84
2022/03/18 04:58:06;;;;;;;22.38;11.75;;;2.90;99.90;;;;;;5014209;28;20041;-84
2022/03/18 05:00:32;;;;;;;27.45;11.80;;;4.10;99.90;;;;;;5014154;28;20049;-84
2022/03/18 05:02:57;;;;;;;21.58;11.95;;;2.80;99.90;;;;;;5030764;28;20394;-84
2022/03/18 05:05:23;;;;;;;24.50;12.60;;;3.00;99.90;;;;;;5032418;28;20056;-84
2022/03/18 05:07:50;;;;;;;23.92;12.05;;;2.80;99.90;;;;;;5014265;28;20154;-84
2022/03/18 05:10:16;;;;;;;23.63;12.77;;;3.50;99.90;;;;;;4997332;28;20071;-84
2022/03/18 05:12:42;;;;;;;30.92;14.10;;;3.00;99.90;;;;;;5031830;28;20056;-85
2022/03/18 05:15:08;;;;;;;24.65;13.15;;;2.70;99.90;;;;;;5031958;28;20046;-84
2022/03/18 05:17:34;;;;;;;29.77;13.85;;;2.60;99.90;;;;;;5013532;28;20045;-85
2022/03/18 05:20:01;;;;;;;26.23;13.93;;;4.00;99.90;;;;;;5014996;28;20132;-84
2022/03/18 05:22:27;;;;;;;27.60;13.82;;;3.70;99.90;;;;;;5013855;28;20065;-87
2022/03/18 05:24:52;;;;;;;29.02;14.63;;;4.00;99.90;;;;;;5031071;28;20072;-84
2022/03/18 05:27:18;;;;;;;27.95;15.82;;;2.60;99.90;;;;;;5030792;28;20046;-85
2022/03/18 05:29:44;;;;;;;24.23;14.73;;;3.30;99.90;;;;;;5011275;28;20064;-84
2022/03/18 05:32:10;;;;;;;29.77;15.73;;;2.60;99.90;;;;;;5048286;28;20115;-87
2022/03/18 05:34:42;;;;;;;27.33;15.05;;;2.80;99.90;;;;;;5017443;28;20069;-85
2022/03/18 05:37:08;;;;;;;25.02;15.10;;;2.50;99.90;;;;;;5027871;28;20057;-86
2022/03/18 05:39:34;;;;;;;21.85;15.73;;;2.50;99.90;;;;;;5047286;28;20051;-85
2022/03/18 05:41:59;;;;;;;29.13;16.90;;;2.50;99.90;;;;;;5016775;28;20078;-87
2022/03/18 05:44:25;;;;;;;32.05;17.02;;;3.70;99.90;;;;;;5044020;28;20068;-87
2022/03/18 05:46:51;;;;;;;29.73;17.38;;;3.20;99.90;;;;;;5033112;28;20044;-87
2022/03/18 05:49:18;;;;;;;32.10;17.50;;;2.50;99.90;;;;;;5050339;28;20150;-87
2022/03/18 05:51:44;;;;;;;35.03;18.38;;;2.50;99.90;;;;;;5049951;28;20053;-85
2022/03/18 05:54:10;;;;;;;37.75;19.20;;;2.60;99.90;;;;;;5001188;28;20100;-86
2022/03/18 05:56:54;;;;;;;35.28;19.48;;;2.70;99.90;;;;;;5049833;28;20053;-87
2022/03/18 05:59:26;;;;;;;35.15;18.73;;;4.40;99.90;;;;;;5036321;28;20099;-88
2022/03/18 06:01:53;;;;;;;33.95;18.92;;;3.20;99.90;;;;;;5014442;28;20041;-86
2022/03/18 06:04:19;;;;;;;31.75;17.77;;;3.30;99.90;;;;;;5031958;28;20041;-85
2022/03/18 06:06:44;;;;;;;29.67;17.15;;;4.30;99.90;;;;;;5032662;28;20037;-86
2022/03/18 06:11:55;;;;;;;;;;;4.60;99.90;;;;;;5047796;28;20080;-86
2022/03/18 06:14:25;;;;;;;26.33;16.10;;;3.40;99.90;;;;;;5033294;28;19967;-86
2022/03/18 06:16:52;;;;;;;25.55;16.27;;;3.40;99.90;;;;;;5053176;28;20057;-86
2022/03/18 06:19:18;;;;;;;30.05;16.70;;;3.30;99.90;;;;;;5026237;28;20663;-84
2022/03/18 06:21:47;;;;;;;27.08;17.40;;;3.30;99.90;;;;;;5063105;28;20061;-86
2022/03/18 06:24:13;;;;;;;29.13;17.17;;;3.30;99.90;;;;;;5051280;28;20056;-86
2022/03/18 06:26:39;;;;;;;34.90;18.48;;;3.40;99.90;;;;;;5017395;28;20095;-86
2022/03/18 06:29:05;;;;;;;28.83;17.73;;;3.90;99.90;;;;;;5019489;28;20453;-86
2022/03/18 06:31:31;;;;;;;26.58;16.10;;;4.50;99.90;;;;;;5036735;28;20114;-86
2022/03/18 06:33:56;;;;;;;21.65;15.35;;;5.10;99.90;;;;;;5041410;28;20100;-85
2022/03/18 06:36:22;;;;;;;25.77;13.68;;;5.70;99.90;;;;;;5054066;28;20060;-84
2022/03/18 06:38:48;;;;;;;21.85;13.70;;;6.60;99.90;;;;;;5065703;28;20122;-85
2022/03/18 06:41:15;;;;;;;19.98;12.25;;;6.80;99.90;;;;;;5037408;28;20127;-84
2022/03/18 06:43:40;;;;;;;19.35;12.27;;;7.50;99.90;;;;;;5053326;28;20056;-85
2022/03/18 06:46:06;;;;;;;19.45;11.88;;;7.90;99.90;;;;;;5020497;28;20037;-85
2022/03/18 06:48:32;;;;;;;16.52;11.90;;;8.30;99.90;;;;;;5019484;28;20061;-84
2022/03/18 06:50:59;;;;;;;19.80;10.98;;;8.80;99.90;;;;;;5053264;28;20052;-84
2022/03/18 06:53:26;;;;;;;16.63;11.23;;;9.00;99.90;;;;;;5037094;28;20484;-84
2022/03/18 06:55:51;;;;;;;16.08;11.70;;;9.40;99.90;;;;;;5019647;28;20060;-85
2022/03/18 06:58:17;;;;;;;20.98;12.85;;;9.60;99.90;;;;;;5054914;28;20045;-84
2022/03/18 07:00:43;;;;;;;16.67;11.77;;;9.60;99.90;;;;;;5054483;28;20051;-84
2022/03/18 07:03:08;;;;;;;16.08;11.73;;;9.80;99.90;;;;;;5020237;28;20080;-84
2022/03/18 07:05:34;;;;;;;16.27;11.75;;;10.50;99.90;;;;;;5052820;28;20806;-84
2022/03/18 07:08:01;;;;;;;18.75;11.88;;;10.50;99.90;;;;;;5037033;28;20045;-84
2022/03/18 07:10:27;;;;;;;17.33;11.73;;;10.90;99.90;;;;;;5054738;28;20087;-85
2022/03/18 07:12:53;;;;;;;17.63;11.95;;;10.70;99.90;;;;;;5036565;28;20041;-85
2022/03/18 07:15:20;;;;;;;17.35;12.35;;;11.00;99.90;;;;;;5053516;28;20481;-85
2022/03/18 07:18:01;;;;;;;16.73;12.23;;;10.80;99.90;;;;;;5051739;28;20513;-84
2022/03/18 07:20:31;;;;;;;15.73;11.55;;;11.20;99.90;;;;;;5052815;28;20049;-84
2022/03/18 07:23:16;;;;;;;16.65;12.32;;;11.40;99.90;;;;;;5035720;28;20136;-84
2022/03/18 07:25:51;;;;;;;18.70;12.85;;;11.70;99.90;;;;;;5051958;28;20124;-84
2022/03/18 07:28:17;;;;;;;18.00;11.88;;;12.10;99.90;;;;;;5020470;28;20048;-84
2022/03/18 07:30:44;;;;;;;14.10;11.90;;;12.20;99.90;;;;;;5018166;28;20076;-84
2022/03/18 07:33:09;;;;;;;17.35;11.98;;;11.80;99.90;;;;;;5030709;28;20041;-84
2022/03/18 07:35:35;;;;;;;19.67;13.00;;;11.80;99.90;;;;;;5018886;28;20067;-84
2022/03/18 07:38:09;;;;;;;18.27;12.57;;;12.10;99.90;;;;;;5052103;28;20504;-83
2022/03/18 07:40:35;;;;;;;17.27;12.38;;;11.50;99.90;;;;;;5032015;28;20057;-84
2022/03/18 07:43:01;;;;;;;18.90;11.95;;;11.60;99.90;;;;;;5053280;28;20063;-84
2022/03/18 07:45:28;;;;;;;18.60;12.75;;;11.80;99.90;;;;;;5052837;28;20049;-83
2022/03/18 07:47:57;;;;;;;16.20;11.35;;;12.40;99.90;;;;;;5018787;28;20321;-83
2022/03/18 07:50:25;;;;;;;19.92;12.15;;;12.60;99.90;;;;;;5053525;28;20044;-83
2022/03/18 07:52:54;;;;;;;15.80;11.80;;;12.50;99.90;;;;;;5018752;28;20155;-84
2022/03/18 07:55:21;;;;;;;17.08;13.18;;;12.00;99.90;;;;;;5031912;28;20103;-84
2022/03/18 07:57:47;;;;;;;21.75;12.77;;;11.90;99.90;;;;;;5048862;28;20045;-85
2022/03/18 08:00:14;;;;;;;15.35;11.68;;;12.60;99.90;;;;;;5018633;28;20155;-84
2022/03/18 08:02:40;;;;;;;15.38;11.77;;;12.70;99.90;;;;;;5048199;28;20049;-85
2022/03/18 08:05:06;;;;;;;16.67;12.35;;;13.00;99.90;;;;;;5020001;28;20049;-85
2022/03/18 08:07:33;;;;;;;13.23;11.07;;;12.80;99.90;;;;;;5035021;28;20111;-84
2022/03/18 08:09:59;;;;;;;18.02;12.23;;;12.80;99.90;;;;;;5052007;28;20052;-85
2022/03/18 08:12:28;;;;;;;14.57;11.50;;;13.00;99.90;;;;;;5018989;28;20045;-84
2022/03/18 08:14:54;;;;;;;17.98;12.38;;;13.50;99.90;;;;;;5034887;28;20056;-85
2022/03/18 08:17:20;;;;;;;15.35;11.50;;;13.80;99.90;;;;;;5050968;28;20139;-84
2022/03/18 08:19:46;;;;;;;16.58;11.23;;;14.20;99.90;;;;;;4998379;28;20125;-85
2022/03/18 08:22:11;;;;;;;20.38;11.98;;;14.40;99.90;;;;;;5031017;28;20065;-85
2022/03/18 08:24:37;;;;;;;17.05;11.50;;;14.30;99.90;;;;;;5050938;28;20061;-85
2022/03/18 08:27:04;;;;;;;17.80;10.98;;;14.60;99.90;;;;;;5048763;28;20049;-84
2022/03/18 08:29:30;;;;;;;18.00;11.73;;;14.20;99.90;;;;;;5034956;28;20049;-85
2022/03/18 08:31:56;;;;;;;22.27;11.80;;;15.00;99.90;;;;;;5073754;28;20116;-84
2022/03/18 08:34:21;;;;;;;17.25;10.02;;;15.10;99.90;;;;;;5053636;28;20051;-84
2022/03/18 08:36:48;;;;;;;19.40;10.48;;;16.40;99.90;;;;;;5033854;28;20045;-84
2022/03/18 08:39:14;;;;;;;19.55;9.23;;;16.20;99.90;;;;;;5041820;28;20106;-85
2022/03/18 08:41:40;;;;;;;20.25;10.25;;;15.90;99.90;;;;;;5061439;28;21067;-85
2022/03/18 08:44:05;;;;;;;19.60;9.77;;;16.20;99.90;;;;;;5047361;28;20085;-84
2022/03/18 08:46:33;;;;;;;18.33;9.77;;;15.90;99.90;;;;;;5029102;28;20101;-85
2022/03/18 08:48:59;;;;;;;18.20;10.40;;;15.80;99.90;;;;;;5034368;28;20484;-85
2022/03/18 08:51:25;;;;;;;18.55;10.13;;;17.10;99.90;;;;;;5033521;28;20055;-84
2022/03/18 08:53:50;;;;;;;16.67;9.35;;;17.90;99.90;;;;;;5050176;28;20118;-84
2022/03/18 08:56:16;;;;;;;17.38;9.27;;;18.50;99.90;;;;;;5050906;28;20443;-85
2022/03/18 08:58:41;;;;;;;19.48;10.32;;;17.60;99.90;;;;;;5033874;28;20546;-85
2022/03/18 09:01:07;;;;;;;18.45;11.00;;;17.30;99.90;;;;;;5051590;28;20091;-87
2022/03/18 09:03:33;;;;;;;20.75;10.80;;;17.20;99.90;;;;;;5034477;28;20384;-86
2022/03/18 09:05:59;;;;;;;15.32;10.48;;;17.50;99.90;;;;;;5052144;28;20396;-85
2022/03/18 09:08:25;;;;;;;18.33;10.27;;;17.60;99.90;;;;;;5051056;28;20053;-83
2022/03/18 09:10:50;;;;;;;18.60;10.52;;;18.40;99.90;;;;;;5051885;28;20055;-84
2022/03/18 09:13:16;;;;;;;16.67;10.55;;;18.50;99.90;;;;;;5052185;28;20132;-84
2022/03/18 09:15:42;;;;;;;22.98;11.05;;;18.00;99.90;;;;;;5018323;28;20053;-84
2022/03/18 09:18:08;;;;;;;20.08;10.00;;;18.00;99.90;;;;;;5050801;28;20127;-85
2022/03/18 09:20:34;;;;;;;16.38;9.55;;;18.10;99.90;;;;;;5042906;28;20184;-84
2022/03/18 09:23:01;;;;;;;18.95;9.95;;;18.10;99.90;;;;;;5018439;28;20061;-84
2022/03/18 09:25:27;;;;;;;16.20;9.98;;;18.10;99.90;;;;;;5039116;28;20128;-85
2022/03/18 09:27:53;;;;;;;19.90;9.48;;;18.00;99.90;;;;;;5048865;28;20202;-84
2022/03/18 09:30:18;;;;;;;18.67;9.57;;;18.10;99.90;;;;;;5045776;28;20045;-84
2022/03/18 09:32:44;;;;;;;19.73;9.80;;;18.20;99.90;;;;;;5030531;28;20545;-85
2022/03/18 09:35:11;;;;;;;17.10;9.98;;;18.10;99.90;;;;;;5017649;28;20053;-85
2022/03/18 09:37:37;;;;;;;19.50;9.82;;;18.30;99.90;;;;;;5031629;28;20049;-86
2022/03/18 09:40:05;;;;;;;16.67;10.50;;;18.30;99.90;;;;;;5026189;28;20051;-85
2022/03/18 09:42:32;;;;;;;20.75;9.60;;;17.80;99.90;;;;;;5048377;28;20481;-84
2022/03/18 09:44:58;;;;;;;15.45;8.43;;;18.70;99.90;;;;;;5016006;28;20136;-84
2022/03/18 09:47:23;;;;;;;16.20;9.60;;;18.80;99.90;;;;;;5050305;28;20477;-85
2022/03/18 09:49:49;;;;;;;15.80;9.15;;;18.70;99.90;;;;;;5033302;28;20057;-84
2022/03/18 09:52:15;;;;;;;18.40;9.80;;;18.20;99.90;;;;;;5049357;28;20044;-84
2022/03/18 09:54:41;;;;;;;23.33;10.80;;;18.20;99.90;;;;;;5034001;28;20059;-85
2022/03/18 09:57:06;;;;;;;17.23;10.70;;;17.50;99.90;;;;;;5018042;28;20045;-84
2022/03/18 09:59:32;;;;;;;21.67;10.18;;;17.60;99.90;;;;;;5050632;28;20056;-85
2022/03/18 10:02:26;;;;;;;16.30;9.75;;;17.00;99.90;;;;;;5050197;28;20059;-84
2022/03/18 10:04:56;;;;;;;;;;;17.20;99.90;;;;;;5054219;28;20132;-84
2022/03/18 10:07:22;;;;;;;22.17;10.57;;;17.60;99.90;;;;;;5054958;28;19975;-84
2022/03/18 10:09:48;;;;;;;18.35;9.40;;;17.80;99.90;;;;;;5038149;28;20111;-84
2022/03/18 10:12:34;;;;;;;18.50;9.80;;;17.50;99.90;;;;;;5054862;28;20057;-87
2022/03/18 10:15:17;;;;;;;19.00;9.65;;;17.10;99.90;;;;;;5038086;28;20045;-85
2022/03/18 10:17:51;;;;;;;16.23;9.77;;;18.00;99.90;;;;;;5022303;28;20049;-84
2022/03/18 10:20:25;;;;;;;17.58;10.23;;;18.10;99.90;;;;;;5038214;28;20493;-84
2022/03/18 10:22:51;;;;;;;17.50;9.25;;;18.20;99.90;;;;;;5054646;28;20053;-83
2022/03/18 10:25:56;;;;;;;16.70;9.85;;;17.90;99.90;;;;;;5038621;28;20056;-85
2022/03/18 10:28:37;;;;;;;17.58;9.98;;;18.00;99.90;;;;;;5020721;28;20589;-84
2022/03/18 10:31:22;;;;;;;16.92;10.13;;;17.00;99.90;;;;;;5032627;28;20061;-84
2022/03/18 10:37:07;;;;;;;15.98;9.90;;;16.80;99.90;;;;;;5020267;28;20061;-85
2022/03/18 10:39:43;;;;;;;21.13;10.82;;;16.90;99.90;;;;;;5006305;28;20095;-84
2022/03/18 10:42:14;;;;;;;18.52;11.57;;;16.60;99.90;;;;;;5046696;28;20204;-85
2022/03/18 10:44:53;;;;;;;17.85;10.93;;;16.40;99.90;;;;;;5016192;28;20049;-85
2022/03/18 10:47:28;;;;;;;23.42;12.25;;;16.60;99.90;;;;;;5033181;28;20506;-85
2022/03/18 10:50:15;;;;;;;23.83;10.90;;;15.70;99.90;;;;;;5017364;28;20095;-86
2022/03/18 10:52:50;;;;;;;21.23;9.57;;;15.80;99.90;;;;;;5000354;28;20057;-86
2022/03/18 10:55:20;;;;;;;18.13;9.80;;;16.40;99.90;;;;;;5037323;28;20111;-86
2022/03/18 10:57:53;;;;;;;26.10;10.57;;;16.00;99.90;;;;;;5032184;28;20084;-86
2022/03/18 11:00:20;;;;;;;20.00;10.95;;;15.80;99.90;;;;;;5007299;28;20058;-86
2022/03/18 11:02:52;;;;;;;19.00;11.48;;;15.60;99.90;;;;;;5001460;28;20143;-85
2022/03/18 11:05:21;;;;;;;16.73;9.35;;;15.70;99.90;;;;;;5034281;28;20037;-86
2022/03/18 11:07:50;;;;;;;16.77;10.10;;;16.30;99.90;;;;;;5016552;28;20128;-85
2022/03/18 11:13:02;;;;;;;18.35;9.98;;;16.00;99.90;;;;;;5005443;28;20464;-85
2022/03/18 11:15:29;;;;;;;17.85;9.30;;;16.00;99.90;;;;;;4999262;28;20395;-85
2022/03/18 11:17:56;;;;;;;22.50;9.63;;;15.60;99.90;;;;;;5000560;28;20061;-85
2022/03/18 11:20:24;;;;;;;18.05;9.90;;;15.30;99.90;;;;;;5016540;28;20111;-85
2022/03/18 11:22:49;;;;;;;16.92;10.05;;;14.80;99.90;;;;;;5000622;28;20056;-85
2022/03/18 11:25:16;;;;;;;16.48;10.13;;;14.90;99.90;;;;;;4999908;28;20053;-84
2022/03/18 11:27:44;;;;;;;18.60;9.85;;;15.20;99.90;;;;;;5016700;28;20045;-85
2022/03/18 11:30:47;;;;;;;19.88;9.52;;;15.00;99.90;;;;;;5000890;28;20115;-86
2022/03/18 11:33:16;;;;;;;17.58;9.90;;;14.90;99.90;;;;;;4998604;28;20560;-84
2022/03/18 11:35:48;;;;;;;13.98;7.38;;;14.40;99.90;;;;;;5028937;28;20061;-85
2022/03/18 11:38:25;;;;;;;14.48;7.57;;;14.80;99.90;;;;;;5032169;28;20124;-84
2022/03/18 11:40:58;;;;;;;24.05;9.45;;;14.80;99.90;;;;;;5002177;28;20559;-85
2022/03/18 11:43:39;;;;;;;16.38;9.30;;;14.60;99.90;;;;;;5035324;28;20053;-85
2022/03/18 11:46:16;;;;;;;16.23;8.73;;;14.70;99.90;;;;;;5051370;28;20053;-85
2022/03/18 11:48:52;;;;;;;19.25;10.10;;;14.90;99.90;;;;;;5051934;28;20106;-85
2022/03/18 11:51:32;;;;;;;17.42;8.25;;;14.60;99.90;;;;;;5052485;28;20056;-87
2022/03/18 11:54:00;;;;;;;16.05;8.77;;;14.50;99.90;;;;;;5054347;28;20103;-86
2022/03/18 11:56:51;;;;;;;16.25;8.57;;;14.50;99.90;;;;;;5054932;28;20143;-86
2022/03/18 11:59:27;;;;;;;18.00;9.10;;;14.80;99.90;;;;;;5034615;28;20124;-86
2022/03/18 12:02:08;;;;;;;14.63;8.48;;;14.60;99.90;;;;;;5034984;28;20060;-86
2022/03/18 12:04:33;;;;;;;12.68;6.80;;;14.70;99.90;;;;;;5019120;28;20124;-86
2022/03/18 12:07:19;;;;;;;15.85;7.53;;;14.70;99.90;;;;;;5051872;28;20462;-86
2022/03/18 12:10:00;;;;;;;19.90;9.05;;;14.70;99.90;;;;;;5052846;28;20053;-85
2022/03/18 12:12:28;;;;;;;18.38;8.27;;;14.80;99.90;;;;;;5034782;28;20100;-86
2022/03/18 12:14:56;;;;;;;14.57;8.15;;;14.80;99.90;;;;;;5032143;28;20507;-85
2022/03/18 12:17:22;;;;;;;17.05;7.38;;;14.90;99.90;;;;;;5014602;28;20049;-86
2022/03/18 12:19:49;;;;;;;15.73;7.63;;;14.90;99.90;;;;;;5014743;28;20051;-86
2022/03/18 12:22:15;;;;;;;14.48;7.03;;;15.00;99.90;;;;;;4998121;28;20099;-86
2022/03/18 12:24:41;;;;;;;14.68;7.15;;;15.00;99.90;;;;;;4998356;28;20084;-86
2022/03/18 12:27:06;;;;;;;13.68;7.18;;;15.50;99.90;;;;;;5014465;28;20053;-85
2022/03/18 12:29:32;;;;;;;11.25;6.22;;;15.40;99.90;;;;;;5014834;28;20049;-86
2022/03/18 12:32:09;;;;;;;13.32;7.72;;;15.70;99.90;;;;;;5031136;28;20056;-86
2022/03/18 12:34:55;;;;;;;18.75;7.78;;;15.50;99.90;;;;;;5015063;28;20049;-86
2022/03/18 12:37:22;;;;;;;16.13;6.72;;;15.50;99.90;;;;;;5014322;28;20045;-86
2022/03/18 12:40:01;;;;;;;13.00;6.93;;;15.40;99.90;;;;;;5015345;28;20477;-86
2022/03/18 12:42:26;;;;;;;15.50;6.50;;;15.60;99.90;;;;;;5030722;28;20057;-87
2022/03/18 12:44:57;;;;;;;13.45;6.53;;;15.50;99.90;;;;;;5014848;28;20065;-86
2022/03/18 12:47:24;;;;;;;15.25;6.07;;;16.00;99.90;;;;;;5014687;28;20124;-85
2022/03/18 12:49:51;;;;;;;13.43;6.45;;;16.20;99.90;;;;;;4999239;28;20057;-85
2022/03/18 12:52:19;;;;;;;15.20;7.00;;;15.80;99.90;;;;;;4998465;28;20089;-84
2022/03/18 12:55:07;;;;;;;18.80;7.53;;;15.60;99.90;;;;;;5047273;28;20050;-84
2022/03/18 12:57:34;;;;;;;11.10;5.30;;;15.40;99.90;;;;;;5030597;28;20060;-84
2022/03/18 13:00:00;;;;;;;13.00;5.50;;;15.70;99.90;;;;;;5033683;28;20055;-84